Time;durP1;ratioP1;P1;durP2;ratioP2;P2;SDS_P1;SDS_P2;PMS_P1;PMS_P2;Temp;Humidity;BMP_temperature;BMP_pressure;BME280_temperature;BME280_humidity;BME280_pressure;Samples;Min_cycle;Max_cycle;Signal;HPM_P1;HPM_P2
2021/06/15 00:01:46;;;;;;;4.07;2.50;;;;;;;14.51;74.27;99185.75;5037377;28;20102;-78
2021/06/15 00:04:13;;;;;;;4.18;2.28;;;;;;;14.42;74.75;99208.88;5035822;28;20103;-78
2021/06/15 00:06:41;;;;;;;7.82;2.83;;;;;;;14.45;74.35;99192.06;5049012;28;20075;-78
2021/06/15 00:09:08;;;;;;;4.45;2.58;;;;;;;14.46;74.25;99192.88;5045437;28;20489;-78
2021/06/15 00:11:35;;;;;;;5.32;2.28;;;;;;;14.32;74.98;99205.72;5055081;28;20053;-77
2021/06/15 00:14:02;;;;;;;4.28;2.55;;;;;;;14.43;74.54;99205.06;5036890;28;20064;-78
2021/06/15 00:16:29;;;;;;;3.78;2.30;;;;;;;14.31;75.34;99202.13;5035834;28;20042;-78
2021/06/15 00:18:55;;;;;;;5.65;2.83;;;;;;;14.50;74.61;99203.19;5052096;28;20484;-78
2021/06/15 00:21:23;;;;;;;3.95;2.60;;;;;;;14.52;74.25;99187.41;5035998;28;20051;-78
2021/06/15 00:23:51;;;;;;;4.18;2.45;;;;;;;14.31;75.11;99202.13;5052100;28;20382;-78
2021/06/15 00:26:18;;;;;;;3.05;2.40;;;;;;;14.16;75.48;99193.25;5049921;28;20049;-78
2021/06/15 00:28:45;;;;;;;3.88;2.60;;;;;;;14.10;76.03;99192.19;5039451;28;20057;-78
2021/06/15 00:31:11;;;;;;;4.53;2.60;;;;;;;14.21;75.95;99192.63;5044528;28;20045;-77
2021/06/15 00:33:38;;;;;;;6.80;2.53;;;;;;;14.24;75.46;99181.28;5053321;28;20052;-78
2021/06/15 00:36:06;;;;;;;3.80;2.80;;;;;;;14.33;74.85;99188.22;5054792;28;20045;-77
2021/06/15 00:38:32;;;;;;;3.63;2.65;;;;;;;14.19;75.06;99192.00;5054609;28;20053;-77
2021/06/15 00:41:00;;;;;;;4.35;2.42;;;;;;;13.88;76.03;99186.06;5048596;28;20048;-78
2021/06/15 00:43:27;;;;;;;3.63;2.60;;;;;;;14.05;75.87;99194.72;5055070;28;20048;-78
2021/06/15 00:45:54;;;;;;;5.13;2.67;;;;;;;14.15;75.47;99194.31;5046078;28;20045;-77
2021/06/15 00:48:27;;;;;;;4.53;2.80;;;;;;;13.96;76.47;99199.53;5042749;28;20045;-77
2021/06/15 00:50:55;;;;;;;4.03;3.03;;;;;;;13.87;76.55;99197.19;5042341;28;20106;-77
2021/06/15 00:53:21;;;;;;;3.92;2.40;;;;;;;13.79;77.17;99198.22;5054588;28;20056;-77
2021/06/15 00:55:50;;;;;;;10.52;3.17;;;;;;;13.83;76.64;99172.16;5053581;28;20378;-77
2021/06/15 00:58:18;;;;;;;4.15;2.53;;;;;;;14.03;75.84;99194.09;5053694;28;20444;-77
2021/06/15 01:00:45;;;;;;;4.70;2.47;;;;;;;13.86;75.57;99187.31;5039448;28;20053;-77
2021/06/15 01:03:13;;;;;;;6.10;2.45;;;;;;;13.87;75.46;99186.28;5044853;28;20049;-78
2021/06/15 01:05:41;;;;;;;3.00;2.55;;;;;;;13.84;76.10;99186.69;5051473;28;20106;-77
2021/06/15 01:08:17;;;;;;;4.05;2.85;;;;;;;13.57;76.21;99176.50;5046161;28;20143;-77
2021/06/15 01:10:56;;;;;;;3.95;2.35;;;;;;;13.37;76.85;99176.41;5044905;28;20049;-77
2021/06/15 01:13:43;;;;;;;9.30;2.97;;;;;;;13.68;76.72;99187.88;5044988;28;20084;-77
2021/06/15 01:16:17;;;;;;;4.40;2.92;;;;;;;13.47;76.71;99172.47;5036650;28;20127;-77
2021/06/15 01:18:49;;;;;;;9.25;2.80;;;;;;;13.53;76.77;99193.50;5053935;28;20052;-77
2021/06/15 01:21:18;;;;;;;5.75;2.70;;;;;;;13.49;77.02;99179.41;5040791;28;20684;-77
2021/06/15 01:24:04;;;;;;;4.72;2.78;;;;;;;13.31;77.10;99174.47;5050419;28;20122;-77
2021/06/15 01:26:49;;;;;;;6.28;3.22;;;;;;;13.23;77.49;99180.06;5044691;28;20121;-77
2021/06/15 01:29:21;;;;;;;6.20;2.65;;;;;;;13.22;77.60;99179.25;5046941;28;20095;-77
2021/06/15 01:31:50;;;;;;;4.60;2.72;;;;;;;13.49;77.70;99184.00;5048940;28;20057;-77
2021/06/15 01:34:20;;;;;;;5.43;3.00;;;;;;;13.16;77.90;99180.06;5037875;28;20099;-77
2021/06/15 01:36:56;;;;;;;3.65;2.40;;;;;;;13.09;78.09;99166.34;5048343;28;20111;-77
2021/06/15 01:39:28;;;;;;;3.38;2.75;;;;;;;13.19;78.11;99176.91;5053236;28;20060;-77
2021/06/15 01:42:05;;;;;;;4.80;2.83;;;;;;;13.12;78.44;99177.94;5039000;28;20052;-77
2021/06/15 01:44:36;;;;;;;3.40;2.38;;;;;;;13.21;78.72;99174.81;5037034;28;20041;-77
2021/06/15 01:47:07;;;;;;;5.43;2.53;;;;;;;13.20;78.49;99172.28;5034251;28;20048;-77
2021/06/15 01:49:39;;;;;;;5.63;3.40;;;;;;;13.40;78.27;99184.19;5040491;28;20496;-77
2021/06/15 01:52:09;;;;;;;6.03;2.60;;;;;;;13.59;77.02;99181.75;5053086;28;20048;-77
2021/06/15 01:54:37;;;;;;;4.60;2.70;;;;;;;13.36;77.04;99169.25;5045431;28;20057;-77
2021/06/15 01:57:06;;;;;;;4.15;2.50;;;;;;;13.36;77.53;99180.19;5041322;28;20103;-77
2021/06/15 01:59:37;;;;;;;6.95;2.40;;;;;;;13.38;76.85;99169.06;5049262;28;20456;-77
2021/06/15 02:02:05;;;;;;;3.83;2.63;;;;;;;13.19;77.02;99166.00;5033764;28;20180;-77
2021/06/15 02:04:36;;;;;;;6.68;2.72;;;;;;;13.07;77.42;99159.44;5036394;28;20102;-77
2021/06/15 02:07:05;;;;;;;9.93;2.58;;;;;;;13.07;77.60;99165.72;5053641;28;20091;-77
2021/06/15 02:09:35;;;;;;;5.57;2.65;;;;;;;13.02;77.50;99156.44;5053024;28;20045;-77
2021/06/15 02:12:02;;;;;;;;;;;;;;;12.99;77.92;99171.34;5037885;28;20670;-77
2021/06/15 02:14:29;;;;;;;5.15;2.60;;;;;;;13.06;77.07;99161.28;5041321;28;19924;-77
2021/06/15 02:17:00;;;;;;;5.70;2.88;;;;;;;13.10;76.93;99156.28;5040018;28;20099;-77
2021/06/15 02:19:29;;;;;;;4.45;2.60;;;;;;;13.05;76.91;99151.44;5035377;28;20096;-77
2021/06/15 02:21:57;;;;;;;5.15;2.85;;;;;;;12.89;77.71;99170.88;5044198;28;20049;-78
2021/06/15 02:24:31;;;;;;;5.75;2.90;;;;;;;12.69;77.86;99154.34;5032982;28;20535;-77
2021/06/15 02:26:58;;;;;;;5.30;2.88;;;;;;;12.58;78.38;99158.47;5041821;28;20103;-77
2021/06/15 02:29:25;;;;;;;4.28;2.65;;;;;;;12.72;78.08;99175.75;5042110;28;20055;-77
2021/06/15 02:31:56;;;;;;;7.15;2.70;;;;;;;12.61;78.86;99159.97;5053045;28;20106;-77
2021/06/15 02:34:27;;;;;;;6.88;2.83;;;;;;;12.62;78.69;99159.75;5033174;28;20103;-77
2021/06/15 02:36:55;;;;;;;6.75;2.78;;;;;;;12.65;78.44;99158.53;5033130;28;20052;-77
2021/06/15 02:39:25;;;;;;;6.65;2.92;;;;;;;12.79;77.00;99160.28;5046434;28;20052;-77
2021/06/15 02:41:52;;;;;;;;;;;;;;;12.67;77.87;99173.63;5035186;28;20551;-77
2021/06/15 02:44:22;;;;;;;8.63;2.90;;;;;;;12.60;77.99;99161.84;5040754;28;20281;-77
2021/06/15 02:46:51;;;;;;;5.50;2.72;;;;;;;12.82;77.22;99161.78;5039813;28;20463;-77
2021/06/15 02:49:21;;;;;;;5.55;2.58;;;;;;;12.77;77.19;99164.25;5049665;28;20550;-77
2021/06/15 02:52:09;;;;;;;8.32;2.88;;;;;;;12.72;77.10;99171.16;5057692;28;20057;-78
2021/06/15 02:54:41;;;;;;;3.72;2.70;;;;;;;12.49;77.76;99165.94;5047742;28;20045;-77
2021/06/15 02:57:09;;;;;;;5.38;2.80;;;;;;;12.27;78.44;99156.97;5037135;28;20061;-77
2021/06/15 02:59:36;;;;;;;4.60;2.63;;;;;;;12.20;78.81;99153.34;5055393;28;20385;-77
2021/06/15 03:02:04;;;;;;;4.68;2.95;;;;;;;12.32;78.63;99164.56;5056889;28;20447;-77
2021/06/15 03:04:30;;;;;;;4.30;2.80;;;;;;;12.50;78.11;99164.06;5038883;28;20045;-78
2021/06/15 03:06:57;;;;;;;4.03;2.72;;;;;;;12.41;78.38;99168.81;5055887;28;20049;-78
2021/06/15 03:09:25;;;;;;;6.03;3.15;;;;;;;12.35;78.47;99154.09;5038624;28;20448;-78
2021/06/15 03:11:58;;;;;;;3.40;2.80;;;;;;;12.36;78.29;99158.50;5044386;28;20049;-78
2021/06/15 03:14:29;;;;;;;4.93;2.83;;;;;;;12.28;78.52;99176.88;5036141;28;20468;-78
2021/06/15 03:17:01;;;;;;;4.00;2.75;;;;;;;12.04;79.28;99154.44;5047259;28;20068;-78
2021/06/15 03:19:35;;;;;;;6.05;2.45;;;;;;;12.16;79.27;99169.25;5054123;28;20049;-78
2021/06/15 03:22:05;;;;;;;3.42;2.50;;;;;;;12.27;78.85;99156.97;5041286;28;20107;-77
2021/06/15 03:24:36;;;;;;;4.00;2.88;;;;;;;12.36;78.82;99169.41;5036611;28;20049;-77
2021/06/15 03:27:07;;;;;;;3.42;2.85;;;;;;;12.31;78.68;99168.31;5044225;28;20053;-78
2021/06/15 03:29:36;;;;;;;6.20;3.03;;;;;;;12.24;79.39;99176.44;5042277;28;20440;-77
2021/06/15 03:32:08;;;;;;;4.93;3.15;;;;;;;12.15;79.16;99172.13;5043469;28;20728;-77
2021/06/15 03:34:40;;;;;;;5.40;3.47;;;;;;;12.07;79.62;99161.38;5037744;28;20068;-77
2021/06/15 03:37:09;;;;;;;4.60;3.10;;;;;;;12.17;79.82;99170.06;5038081;28;20099;-78
2021/06/15 03:39:37;;;;;;;4.22;2.70;;;;;;;12.05;80.32;99172.47;5049614;28;20052;-78
2021/06/15 03:42:05;;;;;;;5.72;3.25;;;;;;;11.90;80.18;99155.31;5042067;28;20045;-78
2021/06/15 03:44:33;;;;;;;3.75;2.67;;;;;;;11.93;81.18;99176.75;5037804;28;20099;-78
2021/06/15 03:47:01;;;;;;;4.78;3.33;;;;;;;12.09;80.38;99178.38;5054632;28;20049;-78
2021/06/15 03:49:30;;;;;;;4.45;2.78;;;;;;;12.12;80.07;99180.69;5046260;28;20095;-78
2021/06/15 03:52:01;;;;;;;10.18;4.00;;;;;;;12.30;79.62;99182.97;5040168;28;20049;-76
2021/06/15 03:54:29;;;;;;;3.15;2.83;;;;;;;12.32;78.75;99168.09;5046468;28;20069;-77
2021/06/15 03:57:01;;;;;;;4.68;2.80;;;;;;;12.34;78.83;99171.47;5043817;28;20099;-77
2021/06/15 03:59:30;;;;;;;4.72;3.00;;;;;;;12.43;78.26;99155.00;5040930;28;20049;-77
2021/06/15 04:01:59;;;;;;;5.15;2.78;;;;;;;12.49;78.29;99170.56;5049887;28;20056;-77
2021/06/15 04:04:30;;;;;;;9.20;3.03;;;;;;;12.32;78.87;99173.56;5053760;28;20037;-77
2021/06/15 04:06:58;;;;;;;10.88;3.13;;;;;;;12.28;79.74;99190.50;5051211;28;20045;-76
2021/06/15 04:09:29;;;;;;;7.82;2.90;;;;;;;12.17;80.24;99187.25;5051572;28;20108;-78
2021/06/15 04:11:59;;;;;;;5.68;2.63;;;;;;;12.17;79.83;99175.53;5036844;28;20041;-77
2021/06/15 04:14:28;;;;;;;4.15;2.83;;;;;;;12.43;79.37;99177.63;5053856;28;20049;-77
2021/06/15 04:16:56;;;;;;;6.70;3.17;;;;;;;12.44;80.01;99189.41;5035042;28;20050;-78
2021/06/15 04:19:27;;;;;;;5.28;2.60;;;;;;;12.44;80.20;99184.78;5047147;28;20123;-78
2021/06/15 04:21:56;;;;;;;3.55;2.40;;;;;;;12.55;79.97;99186.97;5045774;28;20049;-78
2021/06/15 04:24:25;;;;;;;3.27;2.93;;;;;;;12.58;80.03;99188.47;5047774;28;20049;-78
2021/06/15 04:26:53;;;;;;;5.57;2.90;;;;;;;12.48;80.61;99194.25;5048914;28;20056;-78
2021/06/15 04:29:22;;;;;;;4.28;3.03;;;;;;;12.65;80.62;99192.09;5046802;28;20451;-78
2021/06/15 04:31:53;;;;;;;5.55;3.63;;;;;;;12.80;80.19;99194.72;5050241;28;20614;-78
2021/06/15 04:34:25;;;;;;;8.00;2.92;;;;;;;12.59;80.70;99190.16;5050331;28;20643;-78
2021/06/15 04:36:56;;;;;;;6.03;3.42;;;;;;;12.69;80.75;99200.72;5052608;28;20096;-77
2021/06/15 04:39:24;;;;;;;3.38;2.70;;;;;;;12.94;79.84;99192.94;5045679;28;20052;-77
2021/06/15 04:42:00;;;;;;;3.63;3.10;;;;;;;12.91;79.76;99191.44;5052453;28;20134;-77
2021/06/15 04:44:32;;;;;;;6.47;3.42;;;;;;;13.09;79.44;99210.03;5036280;28;20053;-77
2021/06/15 04:47:03;;;;;;;7.15;3.47;;;;;;;13.15;79.55;99207.56;5042437;28;20444;-77
2021/06/15 04:49:33;;;;;;;4.63;3.30;;;;;;;13.18;79.50;99191.59;5044508;28;20056;-78
2021/06/15 04:52:02;;;;;;;5.47;3.28;;;;;;;13.38;80.04;99205.41;5055300;28;20099;-78
2021/06/15 04:54:33;;;;;;;11.07;3.42;;;;;;;13.45;80.12;99211.72;5049992;28;20127;-79
2021/06/15 04:57:02;;;;;;;7.60;3.88;;;;;;;13.70;79.66;99203.03;5054735;28;20049;-78
2021/06/15 04:59:31;;;;;;;6.97;3.88;;;;;;;14.54;76.34;99206.34;5052290;28;20055;-78
2021/06/15 05:02:01;;;;;;;7.70;4.15;;;;;;;15.60;72.31;99200.91;5038686;28;20071;-78
2021/06/15 05:04:28;;;;;;;6.72;3.88;;;;;;;16.27;69.35;99185.00;5054679;28;20052;-77
2021/06/15 05:06:55;;;;;;;5.55;3.22;;;;;;;16.77;67.31;99193.28;5053655;28;20520;-79
2021/06/15 05:09:25;;;;;;;5.35;3.65;;;;;;;17.11;65.86;99202.06;5036797;28;20119;-78
2021/06/15 05:11:54;;;;;;;5.40;3.60;;;;;;;17.41;65.37;99193.06;5036402;28;20049;-79
2021/06/15 05:14:25;;;;;;;7.43;3.30;;;;;;;17.99;63.05;99197.25;5052372;28;20041;-79
2021/06/15 05:16:55;;;;;;;6.38;3.35;;;;;;;18.31;62.24;99205.25;5038057;28;20400;-78
2021/06/15 05:19:22;;;;;;;6.03;3.45;;;;;;;18.56;60.69;99204.22;5051661;28;20041;-78
2021/06/15 05:21:55;;;;;;;5.63;3.40;;;;;;;18.75;59.98;99208.56;5050711;28;20053;-78
2021/06/15 05:24:41;;;;;;;6.60;3.10;;;;;;;18.64;60.21;99201.16;5034526;28;20558;-78
2021/06/15 05:27:08;;;;;;;3.60;3.05;;;;;;;18.90;58.93;99194.38;5033807;28;20107;-78
2021/06/15 05:29:35;;;;;;;3.95;3.10;;;;;;;19.40;58.03;99212.31;5039159;28;20042;-78
2021/06/15 05:32:07;;;;;;;7.18;3.22;;;;;;;19.68;57.67;99210.72;5051432;28;20053;-78
2021/06/15 05:34:36;;;;;;;4.78;2.80;;;;;;;19.94;56.53;99209.34;5033718;28;20057;-78
2021/06/15 05:37:03;;;;;;;6.63;2.83;;;;;;;20.09;55.11;99197.78;5046294;28;20118;-78
2021/06/15 05:39:30;;;;;;;4.53;2.97;;;;;;;19.74;55.49;99206.16;5052497;28;20049;-78
2021/06/15 05:41:57;;;;;;;5.22;2.70;;;;;;;19.93;55.20;99193.91;5049452;28;20476;-78
2021/06/15 05:44:24;;;;;;;6.47;3.00;;;;;;;20.28;54.22;99200.34;5051388;28;20052;-78
2021/06/15 05:46:50;;;;;;;3.97;2.85;;;;;;;20.61;54.25;99201.47;5053091;28;20489;-77
2021/06/15 05:49:18;;;;;;;7.45;2.95;;;;;;;21.01;53.76;99206.03;5045754;28;20378;-78
2021/06/15 05:51:46;;;;;;;3.55;3.10;;;;;;;21.43;52.10;99208.28;5043542;28;20045;-78
2021/06/15 05:54:13;;;;;;;5.28;3.42;;;;;;;21.52;51.75;99208.72;5033724;28;20111;-78
2021/06/15 05:56:39;;;;;;;4.30;3.05;;;;;;;21.53;51.44;99214.00;5040787;28;20447;-78
2021/06/15 05:59:06;;;;;;;5.45;3.03;;;;;;;21.63;51.29;99218.00;5051286;28;20094;-78
2021/06/15 06:01:36;;;;;;;6.00;3.92;;;;;;;21.44;51.96;99207.22;5058240;28;20625;-78
2021/06/15 06:04:05;;;;;;;6.45;3.47;;;;;;;22.01;49.97;99213.47;5043270;28;20099;-78
2021/06/15 06:09:17;;;;;;;7.13;3.72;;;;;;;21.83;50.59;99206.34;5045619;28;20048;-78
2021/06/15 06:11:45;;;;;;;5.55;3.30;;;;;;;22.40;50.25;99210.59;5053097;28;20102;-78
2021/06/15 06:14:12;;;;;;;4.93;2.85;;;;;;;22.65;49.75;99214.72;5051248;28;20045;-78
2021/06/15 06:16:42;;;;;;;6.00;3.15;;;;;;;23.02;50.13;99209.22;5042561;28;20100;-78
2021/06/15 06:19:09;;;;;;;5.38;2.92;;;;;;;23.41;48.51;99206.19;5038310;28;20048;-78
2021/06/15 06:21:38;;;;;;;6.75;3.15;;;;;;;23.28;48.77;99206.66;5052044;28;20045;-79
2021/06/15 06:24:08;;;;;;;4.20;3.27;;;;;;;23.35;48.38;99210.03;5053088;28;20049;-78
2021/06/15 06:26:37;;;;;;;11.57;3.95;;;;;;;23.85;47.04;99200.31;5049754;28;20460;-78
2021/06/15 06:29:04;;;;;;;9.90;3.40;;;;;;;24.03;46.53;99204.53;5052243;28;20044;-79
2021/06/15 06:31:31;;;;;;;7.30;2.97;;;;;;;23.95;47.45;99220.88;5052706;28;20045;-79
2021/06/15 06:33:59;;;;;;;5.75;3.03;;;;;;;24.14;46.23;99213.72;5035380;28;20128;-79
2021/06/15 06:36:27;;;;;;;5.70;2.92;;;;;;;24.41;46.34;99209.06;5052023;28;20044;-79
2021/06/15 06:38:55;;;;;;;4.28;3.00;;;;;;;24.39;46.05;99206.56;5052153;28;20037;-79
2021/06/15 06:41:22;;;;;;;3.95;2.78;;;;;;;24.28;45.83;99219.59;5052266;28;20609;-79
2021/06/15 06:43:49;;;;;;;9.75;2.92;;;;;;;24.15;46.53;99220.13;5052153;28;20098;-79
2021/06/15 06:46:16;;;;;;;9.43;2.92;;;;;;;24.80;45.17;99211.38;5052711;28;20048;-79
2021/06/15 06:48:42;;;;;;;4.55;2.75;;;;;;;24.84;45.17;99210.53;5052659;28;20041;-79
2021/06/15 06:51:09;;;;;;;4.97;2.42;;;;;;;25.40;44.72;99206.88;5047927;28;20053;-79
2021/06/15 06:53:36;;;;;;;7.80;2.90;;;;;;;25.52;43.59;99209.34;5032683;28;20049;-80
2021/06/15 06:56:08;;;;;;;6.93;2.85;;;;;;;25.73;42.58;99201.75;5051280;28;20100;-79
2021/06/15 06:58:35;;;;;;;8.52;2.60;;;;;;;25.92;42.63;99206.69;5041563;28;20519;-80
2021/06/15 07:01:03;;;;;;;7.68;2.50;;;;;;;25.69;41.81;99203.44;5050997;28;20049;-80
2021/06/15 07:03:30;;;;;;;8.73;2.72;;;;;;;25.91;42.42;99207.78;5046286;28;20044;-79
2021/06/15 07:05:57;;;;;;;5.60;2.20;;;;;;;25.20;43.51;99199.38;5052521;28;20053;-79
2021/06/15 07:08:25;;;;;;;5.78;2.95;;;;;;;26.01;42.40;99184.69;5052594;28;20481;-80
2021/06/15 07:10:52;;;;;;;3.70;2.45;;;;;;;26.19;41.05;99195.16;5051682;28;20049;-80
2021/06/15 07:13:20;;;;;;;5.40;2.10;;;;;;;25.86;41.78;99205.03;5032559;28;20056;-80
2021/06/15 07:15:47;;;;;;;8.05;2.30;;;;;;;25.65;42.31;99193.97;5051817;28;20110;-79
2021/06/15 07:18:14;;;;;;;3.35;2.13;;;;;;;25.50;42.45;99194.88;5052573;28;20428;-79
2021/06/15 07:20:41;;;;;;;12.20;2.50;;;;;;;26.05;42.49;99200.53;5049866;28;20065;-79
2021/06/15 07:23:08;;;;;;;4.68;2.50;;;;;;;26.28;41.29;99200.97;5032773;28;20050;-79
2021/06/15 07:25:35;;;;;;;5.32;2.30;;;;;;;26.42;40.48;99196.41;5039404;28;20412;-80
2021/06/15 07:28:02;;;;;;;8.68;2.20;;;;;;;26.62;39.77;99187.06;5032602;28;20099;-80
2021/06/15 07:30:30;;;;;;;9.02;2.20;;;;;;;27.10;39.44;99193.94;5041209;28;20045;-79
2021/06/15 07:32:59;;;;;;;5.97;1.92;;;;;;;27.07;39.73;99197.31;5043524;28;20170;-80
2021/06/15 07:35:27;;;;;;;3.88;2.17;;;;;;;27.47;38.31;99193.28;5036117;28;20053;-79
2021/06/15 07:37:54;;;;;;;6.22;1.83;;;;;;;27.81;36.43;99202.69;5047155;28;20389;-79
2021/06/15 07:40:23;;;;;;;6.13;2.22;;;;;;;27.93;35.23;99203.09;5056511;28;20565;-79
2021/06/15 07:42:51;;;;;;;3.33;1.77;;;;;;;27.56;34.95;99190.69;5051251;28;20053;-80
2021/06/15 07:45:18;;;;;;;3.80;1.83;;;;;;;27.82;34.61;99199.59;5045898;28;20041;-79
2021/06/15 07:47:46;;;;;;;10.48;2.03;;;;;;;27.22;35.84;99193.53;5052569;28;20041;-79
2021/06/15 07:50:14;;;;;;;4.75;2.00;;;;;;;27.39;32.76;99205.13;5043594;28;20099;-80
2021/06/15 07:52:41;;;;;;;5.50;2.20;;;;;;;27.55;35.51;99189.84;5037640;28;20076;-80
2021/06/15 07:55:09;;;;;;;6.00;2.30;;;;;;;27.48;36.57;99205.31;5042092;28;20106;-80
2021/06/15 07:57:35;;;;;;;5.13;2.47;;;;;;;27.42;35.80;99209.28;5048342;28;20111;-79
2021/06/15 08:00:07;;;;;;;4.65;1.73;;;;;;;27.90;35.44;99203.69;5056120;28;20049;-80
2021/06/15 08:02:34;;;;;;;7.25;2.78;;;;;;;27.66;34.66;99212.91;5054800;28;20049;-79
2021/06/15 08:05:02;;;;;;;4.90;1.70;;;;;;;27.95;33.88;99206.41;5055320;28;20055;-80
2021/06/15 08:07:29;;;;;;;7.43;2.17;;;;;;;27.55;32.54;99198.25;5049116;28;20076;-79
2021/06/15 08:09:56;;;;;;;5.47;1.98;;;;;;;27.40;33.62;99197.56;5055953;28;20049;-79
2021/06/15 08:12:23;;;;;;;5.78;1.73;;;;;;;27.54;32.92;99196.56;5045553;28;20049;-80
2021/06/15 08:14:50;;;;;;;5.68;2.13;;;;;;;27.66;34.09;99196.16;5055147;28;20052;-80
2021/06/15 08:17:17;;;;;;;4.78;2.53;;;;;;;27.98;33.87;99196.63;5044913;28;20086;-79
2021/06/15 08:19:44;;;;;;;6.82;2.40;;;;;;;27.62;34.04;99203.44;5055570;28;20053;-79
2021/06/15 08:22:12;;;;;;;3.58;1.83;;;;;;;27.85;34.60;99196.22;5043015;28;20103;-80
2021/06/15 08:24:39;;;;;;;4.68;2.20;;;;;;;27.75;34.34;99203.84;5055327;28;20535;-79
2021/06/15 08:27:05;;;;;;;4.18;1.92;;;;;;;27.75;33.17;99198.28;5043655;28;20045;-78
2021/06/15 08:29:32;;;;;;;5.65;1.95;;;;;;;27.87;33.55;99207.09;5042612;28;20111;-79
2021/06/15 08:31:59;;;;;;;5.40;1.83;;;;;;;26.82;35.08;99188.88;5035673;28;20107;-78
2021/06/15 08:34:26;;;;;;;3.80;1.88;;;;;;;27.52;34.50;99193.25;5052598;28;20542;-79
2021/06/15 08:36:53;;;;;;;6.30;1.98;;;;;;;27.87;34.83;99188.34;5036490;28;20096;-80
2021/06/15 08:39:21;;;;;;;6.63;1.77;;;;;;;27.99;35.23;99201.09;5036818;28;20053;-79
2021/06/15 08:41:47;;;;;;;3.15;2.03;;;;;;;27.92;35.19;99192.22;5054819;28;20049;-79
2021/06/15 08:44:14;;;;;;;5.63;2.03;;;;;;;28.03;35.74;99210.53;5054797;28;20060;-80
2021/06/15 08:46:41;;;;;;;4.22;1.85;;;;;;;27.97;35.36;99203.34;5050104;28;20045;-79
2021/06/15 08:49:08;;;;;;;3.58;1.85;;;;;;;27.72;34.88;99200.53;5051254;28;20056;-79
2021/06/15 08:51:36;;;;;;;3.83;1.85;;;;;;;28.03;36.01;99193.75;5043680;28;20104;-79
2021/06/15 08:54:06;;;;;;;4.47;2.13;;;;;;;28.23;35.05;99187.91;5035028;28;20076;-80
2021/06/15 08:56:36;;;;;;;7.70;2.22;;;;;;;28.22;34.35;99191.00;5050109;28;20045;-79
2021/06/15 08:59:18;;;;;;;4.68;1.77;;;;;;;28.55;33.99;99179.88;5035010;28;20053;-80
2021/06/15 09:01:45;;;;;;;4.72;1.92;;;;;;;28.66;32.85;99180.56;5049162;28;20041;-80
2021/06/15 09:04:12;;;;;;;4.30;1.70;;;;;;;28.37;33.36;99179.56;5039497;28;20107;-79
2021/06/15 09:06:39;;;;;;;2.83;1.70;;;;;;;28.62;32.50;99185.09;5046838;28;20542;-80
2021/06/15 09:09:06;;;;;;;3.17;1.83;;;;;;;28.60;31.18;99189.06;5053992;28;20547;-80
2021/06/15 09:11:51;;;;;;;4.60;1.73;;;;;;;28.59;30.26;99192.13;5042868;28;20559;-80
2021/06/15 09:14:18;;;;;;;3.28;1.60;;;;;;;28.85;31.17;99177.75;5041485;28;20045;-80
2021/06/15 09:16:46;;;;;;;10.27;1.90;;;;;;;28.96;30.85;99185.63;5054359;28;20049;-80
2021/06/15 09:19:17;;;;;;;3.78;2.22;;;;;;;29.01;30.60;99183.88;5053737;28;20049;-79
2021/06/15 09:21:46;;;;;;;3.40;1.48;;;;;;;28.81;31.55;99173.88;5036918;28;20049;-81
2021/06/15 09:24:15;;;;;;;5.95;1.60;;;;;;;28.79;31.15;99174.19;5054220;28;20072;-80
2021/06/15 09:26:55;;;;;;;7.72;2.40;;;;;;;29.27;30.48;99187.91;5041483;28;20053;-80
2021/06/15 09:29:34;;;;;;;7.53;2.08;;;;;;;29.03;29.10;99179.66;5034049;28;20057;-80
2021/06/15 09:32:04;;;;;;;3.13;1.60;;;;;;;28.78;29.60;99190.16;5045585;28;20048;-80
2021/06/15 09:34:33;;;;;;;5.25;1.50;;;;;;;28.67;31.00;99183.06;5048669;28;20049;-80
2021/06/15 09:37:04;;;;;;;8.43;2.13;;;;;;;28.86;29.38;99185.81;5044459;28;20489;-80
2021/06/15 09:39:32;;;;;;;8.30;1.70;;;;;;;28.49;29.14;99183.88;5043922;28;20094;-80
2021/06/15 09:42:04;;;;;;;2.75;1.25;;;;;;;28.71;30.51;99174.88;5054140;28;20049;-80
2021/06/15 09:44:31;;;;;;;4.15;1.75;;;;;;;29.00;29.51;99174.66;5034901;28;20076;-79
2021/06/15 09:47:01;;;;;;;3.00;1.63;;;;;;;28.95;29.27;99175.59;5033137;28;20053;-80
2021/06/15 09:49:33;;;;;;;3.45;1.55;;;;;;;29.02;30.22;99186.38;5050873;28;20045;-80
2021/06/15 09:52:20;;;;;;;4.10;1.75;;;;;;;29.22;28.65;99190.81;5045242;28;20596;-80
2021/06/15 09:54:49;;;;;;;5.47;1.80;;;;;;;29.38;28.53;99184.94;5041574;28;20481;-79
2021/06/15 09:57:23;;;;;;;7.22;1.90;;;;;;;29.88;27.93;99178.63;5036809;28;20045;-80
2021/06/15 10:00:06;;;;;;;6.22;1.75;;;;;;;29.42;28.59;99180.38;5040478;28;20049;-80
2021/06/15 10:02:33;;;;;;;2.75;1.50;;;;;;;29.01;28.98;99192.28;5034529;28;20164;-79
2021/06/15 10:05:04;;;;;;;4.13;1.67;;;;;;;29.63;28.07;99181.63;5033356;28;20049;-80
2021/06/15 10:07:36;;;;;;;3.67;1.73;;;;;;;29.91;29.59;99173.22;5037977;28;20073;-81
2021/06/15 10:10:03;;;;;;;5.68;1.60;;;;;;;29.89;28.84;99171.88;5033923;28;20103;-80
2021/06/15 10:12:36;;;;;;;5.80;1.58;;;;;;;30.15;27.28;99169.31;5043188;28;20037;-80
2021/06/15 10:15:05;;;;;;;2.97;1.60;;;;;;;29.85;28.37;99182.88;5052317;28;20736;-80
2021/06/15 10:17:33;;;;;;;4.15;2.00;;;;;;;30.45;27.54;99175.41;5053414;28;20056;-80
2021/06/15 10:20:05;;;;;;;9.50;1.77;;;;;;;30.62;27.64;99175.56;5034352;28;20053;-81
2021/06/15 10:22:32;;;;;;;4.40;1.60;;;;;;;30.19;28.20;99168.38;5033818;28;20111;-80
2021/06/15 10:24:59;;;;;;;4.05;1.70;;;;;;;29.99;27.17;99183.69;5043706;28;20441;-80
2021/06/15 10:27:31;;;;;;;6.53;1.95;;;;;;;29.71;28.01;99156.81;5033506;28;20050;-79
2021/06/15 10:29:59;;;;;;;1.73;1.40;;;;;;;30.10;27.13;99164.66;5051120;28;20394;-80
2021/06/15 10:32:27;;;;;;;5.47;2.00;;;;;;;30.60;26.38;99165.78;5052998;28;20493;-80
2021/06/15 10:34:57;;;;;;;2.80;1.67;;;;;;;30.35;28.02;99165.22;5052453;28;20059;-79
2021/06/15 10:37:47;;;;;;;3.00;1.48;;;;;;;30.21;27.16;99170.88;5045183;28;20044;-79
2021/06/15 10:40:59;;;;;;;4.85;1.70;;;;;;;30.36;27.34;99162.09;5045038;28;20045;-79
2021/06/15 10:43:29;;;;;;;4.00;1.30;;;;;;;30.12;27.80;99162.38;5050284;28;20083;-78
2021/06/15 10:46:05;;;;;;;2.47;1.60;;;;;;;29.89;27.14;99158.69;5032663;28;20054;-78
2021/06/15 10:48:43;;;;;;;4.78;1.45;;;;;;;29.67;28.16;99151.00;5035446;28;20207;-78
2021/06/15 10:51:35;;;;;;;2.65;1.60;;;;;;;30.05;28.18;99158.34;5036495;28;20092;-79
2021/06/15 10:54:23;;;;;;;4.38;1.63;;;;;;;30.32;26.83;99155.47;5039187;28;20059;-80
2021/06/15 10:57:18;;;;;;;4.00;1.60;;;;;;;30.08;27.41;99158.56;5038940;28;20053;-79
2021/06/15 11:00:01;;;;;;;6.03;1.60;;;;;;;30.51;26.14;99160.09;5045736;28;20099;-80
2021/06/15 11:02:31;;;;;;;5.20;1.52;;;;;;;30.69;26.46;99145.06;5032630;28;20103;-79
2021/06/15 11:04:58;;;;;;;3.22;1.42;;;;;;;30.38;28.51;99147.75;5045075;28;20073;-79
2021/06/15 11:07:27;;;;;;;5.63;1.95;;;;;;;30.35;27.00;99126.81;5051280;28;20045;-79
2021/06/15 11:09:54;;;;;;;3.53;1.27;;;;;;;30.55;27.67;99130.28;5056289;28;20052;-78
2021/06/15 11:12:24;;;;;;;2.90;1.40;;;;;;;30.62;27.68;99143.84;5056752;28;20630;-77
2021/06/15 11:15:21;;;;;;;2.72;1.52;;;;;;;30.30;28.40;99140.09;5056122;28;20049;-78
2021/06/15 11:17:58;;;;;;;6.03;1.55;;;;;;;30.30;28.05;99134.50;5053129;28;20485;-84
2021/06/15 11:20:30;;;;;;;3.08;1.33;;;;;;;30.21;28.70;99128.81;5053882;28;20048;-80
2021/06/15 11:23:19;;;;;;;5.97;1.33;;;;;;;30.40;27.34;99142.69;5044920;28;20136;-80
2021/06/15 11:25:47;;;;;;;4.70;1.83;;;;;;;30.52;28.27;99139.34;5036190;28;20053;-80
2021/06/15 11:28:37;;;;;;;2.20;1.57;;;;;;;30.96;27.15;99142.44;5045673;28;20392;-79
2021/06/15 11:31:29;;;;;;;7.07;1.40;;;;;;;31.04;26.13;99142.50;5056364;28;20298;-79
2021/06/15 11:34:22;;;;;;;2.83;1.65;;;;;;;30.58;26.21;99146.47;5050490;28;20053;-79
2021/06/15 11:36:54;;;;;;;2.72;1.60;;;;;;;30.69;26.05;99142.25;5035988;28;20056;-80
2021/06/15 11:39:36;;;;;;;4.60;1.42;;;;;;;31.04;26.61;99127.63;5037010;28;20449;-79
2021/06/15 11:42:22;;;;;;;3.70;1.40;;;;;;;31.14;25.30;99137.75;5048736;28;20488;-81
2021/06/15 11:44:56;;;;;;;5.38;1.45;;;;;;;31.24;25.56;99143.09;5037236;28;20049;-79
2021/06/15 11:47:35;;;;;;;2.60;1.70;;;;;;;31.67;24.89;99125.59;5034431;28;20045;-79
2021/06/15 11:50:15;;;;;;;6.95;1.73;;;;;;;31.97;24.63;99139.88;5053098;28;20049;-79
2021/06/15 11:52:45;;;;;;;4.82;1.80;;;;;;;31.33;24.86;99127.13;5046703;28;20041;-79